航空気象通報

ウインドサーファーのための航空気象通報による風予報です。

4/25-26の航空気象通報(国内、海外)

2008年04月25日 22時30分08秒 | TAF
羽田空港
TAF RJTT 250852Z 251812 04010KT 9999 FEW030 SCT050
BECMG 0003 09008KT
BECMG 0609 16014KT
日本時間26日03-09時:040度から10ノットの風
09-12時:風が変化
12-15時:090度から8ノットの風
15-18時:風が変化
18-21時:160度から14ノットの風

那覇空港
TAF ROAH 250840Z 251812 36010KT 9999 FEW035
日本時間26日03-21時:360度から10ノットの風


マウイのカフルイ空港
PHOG 251122Z 251212 13005KT P6SM SKC
FM1900 01010KT P6SM SCT060
FM0600 13005KT P6SM FEW060
ハワイ時間25日02-09時:130度から5ノットの風
09-20時:010度から10ノットの風
20時-26日02時:130度から5ノットの風


サイパン空港
PGSN 251120Z 251212 07010KT P6SM VCSH SCT025
マリアナ時間25日22時-26日22時:070度から10ノットの風

コメント